createdAt,value
2023-01-05T00:00:45.031Z,0.00
2023-01-05T00:01:44.379Z,0.00
2023-01-05T00:02:44.460Z,0.00
2023-01-05T00:03:44.505Z,0.00
2023-01-05T00:04:44.588Z,0.00
2023-01-05T00:05:44.556Z,0.00
2023-01-05T00:06:45.518Z,0.00
2023-01-05T00:07:44.621Z,0.00
2023-01-05T00:08:44.690Z,0.00
2023-01-05T00:09:44.750Z,0.00
2023-01-05T00:10:44.802Z,0.00
2023-01-05T00:11:44.847Z,0.00
2023-01-05T00:12:44.865Z,0.00
2023-01-05T00:13:44.912Z,0.00
2023-01-05T00:14:45.516Z,0.00
2023-01-05T00:15:45.006Z,0.00
2023-01-05T00:16:45.093Z,0.00
2023-01-05T00:17:45.096Z,0.00
2023-01-05T00:18:45.135Z,0.00
2023-01-05T00:19:45.997Z,0.00
2023-01-05T00:20:45.235Z,0.00
2023-01-05T00:21:45.305Z,0.00
2023-01-05T00:22:45.350Z,0.00
2023-01-05T00:23:45.381Z,0.00
2023-01-05T00:24:45.415Z,0.00
2023-01-05T00:25:45.468Z,0.00
2023-01-05T00:26:45.516Z,0.00
2023-01-05T00:27:45.596Z,0.00
2023-01-05T00:28:46.491Z,0.00
2023-01-05T00:29:45.645Z,0.00
2023-01-05T00:30:45.694Z,0.00
2023-01-05T00:31:45.770Z,0.00
2023-01-05T00:32:45.813Z,0.00
2023-01-05T00:33:46.495Z,0.00
2023-01-05T00:34:45.912Z,0.00
2023-01-05T00:35:45.942Z,0.00
2023-01-05T00:36:45.977Z,0.00
2023-01-05T00:37:46.029Z,0.00
2023-01-05T00:38:46.090Z,0.00
2023-01-05T00:39:46.114Z,0.00
2023-01-05T00:40:47.001Z,0.00
2023-01-05T00:41:46.221Z,0.00
2023-01-05T00:42:47.004Z,0.00
2023-01-05T00:43:46.317Z,0.00
2023-01-05T00:44:46.344Z,0.00
2023-01-05T00:45:46.431Z,0.00
2023-01-05T00:46:46.473Z,0.00
2023-01-05T00:47:46.494Z,0.00
2023-01-05T00:48:46.534Z,0.00
2023-01-05T00:49:47.503Z,0.00
2023-01-05T00:50:46.660Z,0.00
2023-01-05T00:51:46.681Z,0.00
2023-01-05T00:52:46.729Z,0.00
2023-01-05T00:53:46.792Z,0.00
2023-01-05T00:54:47.544Z,0.00
2023-01-05T00:55:46.872Z,0.00
2023-01-05T00:56:46.897Z,0.00
2023-01-05T00:57:46.976Z,0.00
2023-01-05T00:58:47.508Z,0.00
2023-01-05T00:59:47.040Z,0.00
2023-01-05T01:00:48.117Z,0.00
2023-01-05T01:01:47.312Z,0.00
2023-01-05T01:02:47.322Z,0.00
2023-01-05T01:03:47.295Z,0.00
2023-01-05T01:04:48.013Z,0.00
2023-01-05T01:05:48.007Z,0.00
2023-01-05T01:06:48.007Z,0.00
2023-01-05T01:07:47.430Z,0.00
2023-01-05T01:08:47.480Z,0.00
2023-01-05T01:09:47.524Z,0.00
2023-01-05T01:10:48.512Z,0.00
2023-01-05T01:11:47.604Z,0.00
2023-01-05T01:12:47.647Z,0.00
2023-01-05T01:13:48.507Z,0.00
2023-01-05T01:14:47.787Z,0.00
2023-01-05T01:15:48.510Z,0.00
2023-01-05T01:16:47.861Z,0.00
2023-01-05T01:17:47.864Z,0.00
2023-01-05T01:18:48.514Z,0.00
2023-01-05T01:19:47.998Z,0.00
2023-01-05T01:20:48.002Z,0.00
2023-01-05T01:21:48.052Z,0.00
2023-01-05T01:22:48.098Z,0.00
2023-01-05T01:23:49.008Z,0.00
2023-01-05T01:24:48.241Z,0.00
2023-01-05T01:25:48.244Z,0.00
2023-01-05T01:26:49.027Z,0.00
2023-01-05T01:27:49.013Z,0.00
2023-01-05T01:28:49.002Z,0.00
2023-01-05T01:29:48.459Z,0.00
2023-01-05T01:30:48.552Z,0.00
2023-01-05T01:31:48.516Z,0.00
2023-01-05T01:32:49.505Z,0.00
2023-01-05T01:33:48.619Z,0.00
2023-01-05T01:34:48.699Z,0.00
2023-01-05T01:35:51.514Z,0.00
2023-01-05T01:36:48.752Z,0.00
2023-01-05T01:37:49.519Z,0.00
2023-01-05T01:38:49.513Z,0.00
2023-01-05T01:39:48.911Z,0.00
2023-01-05T01:40:48.967Z,0.00
2023-01-05T01:41:49.532Z,0.00
2023-01-05T01:42:49.054Z,0.00
2023-01-05T01:43:50.014Z,0.00
2023-01-05T01:44:49.139Z,0.00
2023-01-05T01:45:50.053Z,0.00
2023-01-05T01:46:49.222Z,0.00
2023-01-05T01:47:50.028Z,0.00
2023-01-05T01:48:50.015Z,0.00
2023-01-05T01:49:50.021Z,0.00
2023-01-05T01:50:49.427Z,0.00
2023-01-05T01:51:49.425Z,0.00
2023-01-05T01:52:50.014Z,0.00
2023-01-05T01:53:50.515Z,0.00
2023-01-05T01:54:50.518Z,0.00
2023-01-05T01:55:49.649Z,0.00
2023-01-05T01:56:50.512Z,0.00
2023-01-05T01:57:50.523Z,0.00
2023-01-05T01:58:50.533Z,0.00
2023-01-05T01:59:49.816Z,0.00
2023-01-05T02:00:49.849Z,0.00
2023-01-05T02:01:50.035Z,0.00
2023-01-05T02:02:49.951Z,0.00
2023-01-05T02:03:50.515Z,0.00
2023-01-05T02:04:50.083Z,0.00
2023-01-05T02:05:50.065Z,0.00
2023-01-05T02:06:50.137Z,0.00
2023-01-05T02:07:50.162Z,0.00
2023-01-05T02:08:50.207Z,0.00
2023-01-05T02:09:50.280Z,0.00
2023-01-05T02:10:51.050Z,0.00
2023-01-05T02:11:50.340Z,0.00
2023-01-05T02:12:50.430Z,0.00
2023-01-05T02:13:50.464Z,0.00
2023-01-05T02:14:51.020Z,0.00
2023-01-05T02:15:51.517Z,0.00
2023-01-05T02:16:50.644Z,0.00
2023-01-05T02:17:50.659Z,0.00
2023-01-05T02:18:51.517Z,0.00
2023-01-05T02:19:51.514Z,0.00
2023-01-05T02:20:50.794Z,0.00
2023-01-05T02:21:51.516Z,0.00
2023-01-05T02:22:51.515Z,0.00
2023-01-05T02:23:51.525Z,0.00
2023-01-05T02:24:51.524Z,0.00
2023-01-05T02:25:51.017Z,0.00
2023-01-05T02:26:51.058Z,0.00
2023-01-05T02:27:51.088Z,0.00
2023-01-05T02:28:52.027Z,0.00
2023-01-05T02:29:51.159Z,0.00
2023-01-05T02:30:52.099Z,0.00
2023-01-05T02:31:51.283Z,0.00
2023-01-05T02:32:51.300Z,0.00
2023-01-05T02:33:51.354Z,0.00
2023-01-05T02:34:52.030Z,0.00
2023-01-05T02:35:52.017Z,0.00
2023-01-05T02:36:51.516Z,0.00
2023-01-05T02:37:51.581Z,0.00
2023-01-05T02:38:51.580Z,0.00
2023-01-05T02:39:52.526Z,0.00
2023-01-05T02:40:52.525Z,0.00
2023-01-05T02:41:51.717Z,0.00
2023-01-05T02:42:51.776Z,0.00
2023-01-05T02:43:51.810Z,0.00
2023-01-05T02:44:52.523Z,0.00
2023-01-05T02:45:52.563Z,0.00
2023-01-05T02:46:52.528Z,0.00
2023-01-05T02:47:52.014Z,0.00
2023-01-05T02:48:53.029Z,0.00
2023-01-05T02:49:52.104Z,0.00
2023-01-05T02:50:53.027Z,0.00
2023-01-05T02:51:52.193Z,0.00
2023-01-05T02:52:52.250Z,0.00
2023-01-05T02:53:52.254Z,0.00
2023-01-05T02:54:53.031Z,0.00
2023-01-05T02:55:53.031Z,0.00
2023-01-05T02:56:53.021Z,0.00
2023-01-05T02:57:52.458Z,0.00
2023-01-05T02:58:52.513Z,0.00
2023-01-05T02:59:53.526Z,0.00
2023-01-05T03:00:53.527Z,0.00
2023-01-05T03:01:52.718Z,0.00
2023-01-05T03:02:53.654Z,0.00
2023-01-05T03:03:52.757Z,0.00
2023-01-05T03:04:53.525Z,0.00
2023-01-05T03:05:53.535Z,0.00
2023-01-05T03:06:52.855Z,0.00
2023-01-05T03:07:53.524Z,0.00
2023-01-05T03:08:52.971Z,0.00
2023-01-05T03:09:53.546Z,0.00
2023-01-05T03:10:54.023Z,0.00
2023-01-05T03:11:54.038Z,0.00
2023-01-05T03:12:54.025Z,0.00
2023-01-05T03:13:53.212Z,0.00
2023-01-05T03:14:53.767Z,0.00
2023-01-05T03:15:53.322Z,0.00
2023-01-05T03:16:54.036Z,0.00
2023-01-05T03:17:53.391Z,0.00
2023-01-05T03:18:53.400Z,0.00
2023-01-05T03:19:53.443Z,0.00
2023-01-05T03:20:53.488Z,0.00
2023-01-05T03:21:53.542Z,0.00
2023-01-05T03:22:53.605Z,0.00
2023-01-05T03:23:54.542Z,0.00
2023-01-05T03:24:54.526Z,0.00
2023-01-05T03:25:54.534Z,0.00
2023-01-05T03:26:54.526Z,0.00
2023-01-05T03:27:53.845Z,0.00
2023-01-05T03:28:54.524Z,0.00
2023-01-05T03:29:54.530Z,0.00
2023-01-05T03:30:54.008Z,0.00
2023-01-05T03:31:54.000Z,0.00
2023-01-05T03:32:54.063Z,0.00
2023-01-05T03:33:54.084Z,0.00
2023-01-05T03:34:54.173Z,0.00
2023-01-05T03:35:54.188Z,0.00
2023-01-05T03:36:54.249Z,0.00
2023-01-05T03:37:55.036Z,0.00
2023-01-05T03:38:55.065Z,0.00
2023-01-05T03:39:54.390Z,0.00
2023-01-05T03:40:55.031Z,0.00
2023-01-05T03:41:55.031Z,0.00
2023-01-05T03:42:54.523Z,0.00
2023-01-05T03:43:54.549Z,0.00
2023-01-05T03:44:54.629Z,0.00
2023-01-05T03:45:54.679Z,0.00
2023-01-05T03:46:55.555Z,0.00
2023-01-05T03:47:55.555Z,0.00
2023-01-05T03:48:55.556Z,0.00
2023-01-05T03:49:54.862Z,0.00
2023-01-05T03:50:55.534Z,0.00
2023-01-05T03:51:54.916Z,0.00
2023-01-05T03:52:55.568Z,0.00
2023-01-05T03:53:55.554Z,0.00
2023-01-05T03:54:55.091Z,0.00
2023-01-05T03:55:56.042Z,0.00
2023-01-05T03:56:56.039Z,0.00
2023-01-05T03:57:55.192Z,0.00
2023-01-05T03:58:56.033Z,0.00
2023-01-05T03:59:55.304Z,0.00
2023-01-05T04:00:56.053Z,0.00
2023-01-05T04:01:55.509Z,0.00
2023-01-05T04:02:55.540Z,0.00
2023-01-05T04:03:56.117Z,0.00
2023-01-05T04:04:55.505Z,0.00
2023-01-05T04:05:55.556Z,0.00
2023-01-05T04:06:55.624Z,0.00
2023-01-05T04:07:55.648Z,0.00
2023-01-05T04:08:55.697Z,0.00
2023-01-05T04:09:55.747Z,0.00
2023-01-05T04:10:55.816Z,0.00
2023-01-05T04:11:55.833Z,0.00
2023-01-05T04:12:56.568Z,0.00
2023-01-05T04:13:55.947Z,0.00
2023-01-05T04:14:56.558Z,0.00
2023-01-05T04:15:56.132Z,0.00
2023-01-05T04:16:56.066Z,0.00
2023-01-05T04:17:56.113Z,0.00
2023-01-05T04:18:57.054Z,0.00
2023-01-05T04:19:56.203Z,0.00
2023-01-05T04:20:56.272Z,0.00
2023-01-05T04:21:56.291Z,0.00
2023-01-05T04:22:57.046Z,0.00
2023-01-05T04:23:56.377Z,0.00
2023-01-05T04:24:56.455Z,0.00
2023-01-05T04:25:56.503Z,0.00
2023-01-05T04:26:57.052Z,0.00
2023-01-05T04:27:56.570Z,0.00
2023-01-05T04:28:56.637Z,0.00
2023-01-05T04:29:56.661Z,0.00
2023-01-05T04:30:56.763Z,0.00
2023-01-05T04:31:56.748Z,0.00
2023-01-05T04:32:56.798Z,0.00
2023-01-05T04:33:56.869Z,0.00
2023-01-05T04:34:56.906Z,0.00
2023-01-05T04:35:57.567Z,0.00
2023-01-05T04:36:56.982Z,0.00
2023-01-05T04:37:57.029Z,0.00
2023-01-05T04:39:05.133Z,0.00
2023-01-05T04:39:57.123Z,0.00
2023-01-05T04:40:58.078Z,0.00
2023-01-05T04:41:57.206Z,0.00
2023-01-05T04:42:58.097Z,0.00
2023-01-05T04:43:57.329Z,0.00
2023-01-05T04:44:58.088Z,0.00
2023-01-05T04:45:57.471Z,0.00
2023-01-05T04:46:58.135Z,0.00
2023-01-05T04:47:57.482Z,0.00
2023-01-05T04:48:57.523Z,0.00
2023-01-05T04:49:57.599Z,0.00
2023-01-05T04:50:57.681Z,0.00
2023-01-05T04:51:57.683Z,0.00
2023-01-05T04:52:57.711Z,0.00
2023-01-05T04:53:58.594Z,0.00
2023-01-05T04:54:58.599Z,0.00
2023-01-05T04:55:57.889Z,0.00
2023-01-05T04:56:57.912Z,0.00
2023-01-05T04:57:57.951Z,0.00
2023-01-05T04:58:58.612Z,0.00
2023-01-05T04:59:58.068Z,0.00
2023-01-05T05:00:58.594Z,0.00
2023-01-05T05:01:58.201Z,0.00
2023-01-05T05:02:58.270Z,0.00
2023-01-05T05:03:58.299Z,0.00
2023-01-05T05:04:58.281Z,0.00
2023-01-05T05:05:59.102Z,0.00
2023-01-05T05:06:58.403Z,0.00
2023-01-05T05:07:58.422Z,0.00
2023-01-05T05:08:58.451Z,0.00
2023-01-05T05:09:58.537Z,0.00
2023-01-05T05:10:59.089Z,0.00
2023-01-05T05:11:59.087Z,0.00
2023-01-05T05:12:58.632Z,0.00
2023-01-05T05:13:58.673Z,0.00
2023-01-05T05:14:58.757Z,0.00
2023-01-05T05:15:59.672Z,0.00
2023-01-05T05:16:59.590Z,0.00
2023-01-05T05:18:00.135Z,0.00
2023-01-05T05:18:58.901Z,0.00
2023-01-05T05:19:58.978Z,0.00
2023-01-05T05:20:59.037Z,0.00
2023-01-05T05:21:59.045Z,0.00
2023-01-05T05:22:59.089Z,0.00
2023-01-05T05:23:59.173Z,0.00
2023-01-05T05:24:59.184Z,0.00
2023-01-05T05:25:59.248Z,0.00
2023-01-05T05:26:59.275Z,0.00
2023-01-05T05:27:59.336Z,0.00
2023-01-05T05:28:59.402Z,0.00
2023-01-05T05:29:59.410Z,0.00
2023-01-05T05:30:59.514Z,0.00
2023-01-05T05:31:59.506Z,0.00
2023-01-05T05:32:59.581Z,0.00
2023-01-05T05:33:59.605Z,0.00
2023-01-05T05:34:59.652Z,0.00
2023-01-05T05:35:59.689Z,0.00
2023-01-05T05:36:59.774Z,0.00
2023-01-05T05:37:59.792Z,0.00
2023-01-05T05:38:59.826Z,0.00
2023-01-05T05:39:59.877Z,0.00
2023-01-05T05:40:59.926Z,0.00
2023-01-05T05:41:59.991Z,0.00
2023-01-05T05:43:00.040Z,0.00
2023-01-05T05:44:00.106Z,0.00
2023-01-05T05:45:00.102Z,0.00
2023-01-05T05:46:00.156Z,0.00
2023-01-05T05:47:00.270Z,0.00
2023-01-05T05:48:00.243Z,0.00
2023-01-05T05:49:00.355Z,0.00
2023-01-05T05:50:01.117Z,0.00
2023-01-05T05:51:00.380Z,0.00
2023-01-05T05:52:00.424Z,0.00
2023-01-05T05:53:00.502Z,0.00
2023-01-05T05:54:01.102Z,0.00
2023-01-05T05:55:00.564Z,0.00
2023-01-05T05:56:02.301Z,0.00
2023-01-05T05:57:00.665Z,0.00
2023-01-05T05:58:00.717Z,0.00
2023-01-05T05:59:01.737Z,0.00
2023-01-05T06:00:00.789Z,0.00
2023-01-05T06:01:01.405Z,0.00
2023-01-05T06:02:01.011Z,0.00
2023-01-05T06:03:01.059Z,0.00
2023-01-05T06:04:00.979Z,0.00
2023-01-05T06:05:01.024Z,0.00
2023-01-05T06:06:01.113Z,0.00
2023-01-05T06:07:01.135Z,0.00
2023-01-05T06:08:01.161Z,0.00
2023-01-05T06:09:01.207Z,0.00
2023-01-05T06:10:01.265Z,0.00
2023-01-05T06:11:01.341Z,0.00
2023-01-05T06:12:01.354Z,0.00
2023-01-05T06:13:01.425Z,0.00
2023-01-05T06:14:01.441Z,0.00
2023-01-05T06:15:01.485Z,0.00
2023-01-05T06:16:02.129Z,0.00
2023-01-05T06:17:01.577Z,0.00
2023-01-05T06:18:01.663Z,0.00
2023-01-05T06:19:02.611Z,0.00
2023-01-05T06:20:01.719Z,0.00
2023-01-05T06:21:02.144Z,0.00
2023-01-05T06:22:01.826Z,0.00
2023-01-05T06:23:01.888Z,0.00
2023-01-05T06:24:01.898Z,0.00
2023-01-05T06:25:01.958Z,0.00
2023-01-05T06:26:02.017Z,0.00
2023-01-05T06:27:02.051Z,0.00
2023-01-05T06:28:02.111Z,0.00
2023-01-05T06:29:02.130Z,0.00
2023-01-05T06:30:02.222Z,0.00
2023-01-05T06:31:02.285Z,0.00
2023-01-05T06:32:02.266Z,0.00
2023-01-05T06:33:02.314Z,0.00
2023-01-05T06:34:02.378Z,0.00
2023-01-05T06:35:02.411Z,0.00
2023-01-05T06:36:02.473Z,0.00
2023-01-05T06:37:02.729Z,0.00
2023-01-05T06:38:02.568Z,0.00
2023-01-05T06:39:02.610Z,0.00
2023-01-05T06:40:02.650Z,0.00
2023-01-05T06:41:02.718Z,0.00
2023-01-05T06:42:02.743Z,0.00
2023-01-05T06:43:03.613Z,0.00
2023-01-05T06:44:02.826Z,0.00
2023-01-05T06:45:02.895Z,0.00
2023-01-05T06:46:02.961Z,0.00
2023-01-05T06:47:02.996Z,0.00
2023-01-05T06:48:03.613Z,0.00
2023-01-05T06:49:03.083Z,0.00
2023-01-05T06:50:03.607Z,0.00
2023-01-05T06:51:03.166Z,0.00
2023-01-05T06:52:03.225Z,0.00
2023-01-05T06:53:03.251Z,0.00
2023-01-05T06:54:03.298Z,0.00
2023-01-05T06:55:04.118Z,0.00
2023-01-05T06:56:04.110Z,0.00
2023-01-05T06:57:03.444Z,0.00
2023-01-05T06:58:03.487Z,0.00
2023-01-05T06:59:03.549Z,0.00
2023-01-05T07:00:03.576Z,0.00
2023-01-05T07:01:04.258Z,0.00
2023-01-05T07:02:03.708Z,0.00
2023-01-05T07:03:03.708Z,0.00
2023-01-05T07:04:03.801Z,0.00
2023-01-05T07:05:03.795Z,0.00
2023-01-05T07:06:03.905Z,0.00
2023-01-05T07:07:03.886Z,0.00
2023-01-05T07:08:03.935Z,0.00
2023-01-05T07:09:03.977Z,5.63
2023-01-05T07:10:04.615Z,5.63
2023-01-05T07:11:04.108Z,5.63
2023-01-05T07:12:04.111Z,5.63
2023-01-05T07:13:04.158Z,5.63
2023-01-05T07:14:04.208Z,5.63
2023-01-05T07:15:05.125Z,5.63
2023-01-05T07:16:04.393Z,5.63
2023-01-05T07:17:04.339Z,5.63
2023-01-05T07:18:04.391Z,5.63
2023-01-05T07:19:04.440Z,5.63
2023-01-05T07:20:04.518Z,11.25
2023-01-05T07:21:04.559Z,11.25
2023-01-05T07:22:04.591Z,16.88
2023-01-05T07:23:04.614Z,16.88
2023-01-05T07:24:05.630Z,22.50
2023-01-05T07:25:04.740Z,22.50
2023-01-05T07:26:05.819Z,22.50
2023-01-05T07:27:09.572Z,22.50
2023-01-05T07:28:04.852Z,22.50
2023-01-05T07:29:04.895Z,16.88
2023-01-05T07:30:04.976Z,16.88
2023-01-05T07:31:05.013Z,11.25
2023-01-05T07:32:05.730Z,16.88
2023-01-05T07:33:05.077Z,16.88
2023-01-05T07:34:05.130Z,28.13
2023-01-05T07:35:06.123Z,33.75
2023-01-05T07:36:05.380Z,33.75
2023-01-05T07:37:06.118Z,39.38
2023-01-05T07:38:06.127Z,39.38
2023-01-05T07:39:05.368Z,39.38
2023-01-05T07:40:05.404Z,39.38
2023-01-05T07:41:05.467Z,39.38
2023-01-05T07:42:05.500Z,33.75
2023-01-05T07:43:05.533Z,33.75
2023-01-05T07:44:05.583Z,33.75
2023-01-05T07:45:05.723Z,33.75
2023-01-05T07:46:05.709Z,39.38
2023-01-05T07:47:05.731Z,39.38
2023-01-05T07:48:05.773Z,39.38
2023-01-05T07:49:05.817Z,39.38
2023-01-05T07:50:05.899Z,39.38
2023-01-05T07:51:05.921Z,39.38
2023-01-05T07:52:05.960Z,39.38
2023-01-05T07:53:05.998Z,39.38
2023-01-05T07:54:06.060Z,45.00
2023-01-05T07:55:06.127Z,45.00
2023-01-05T07:56:06.144Z,50.63
2023-01-05T07:57:06.191Z,50.63
2023-01-05T07:58:06.230Z,45.00
2023-01-05T07:59:06.287Z,33.75
2023-01-05T08:00:06.359Z,33.75
2023-01-05T08:01:06.605Z,39.38
2023-01-05T08:02:06.545Z,33.75
2023-01-05T08:03:06.513Z,28.13
2023-01-05T08:04:07.168Z,22.50
2023-01-05T08:05:06.569Z,22.50
2023-01-05T08:06:07.138Z,22.50
2023-01-05T08:07:06.684Z,22.50
2023-01-05T08:08:06.722Z,22.50
2023-01-05T08:09:06.737Z,22.50
2023-01-05T08:10:07.630Z,28.13
2023-01-05T08:11:07.632Z,28.13
2023-01-05T08:12:06.889Z,39.38
2023-01-05T08:13:06.970Z,45.00
2023-01-05T08:14:07.623Z,50.63
2023-01-05T08:15:07.625Z,56.25
2023-01-05T08:16:07.117Z,56.25
2023-01-05T08:17:07.118Z,56.25
2023-01-05T08:18:07.220Z,61.88
2023-01-05T08:19:11.069Z,67.50
2023-01-05T08:20:07.245Z,67.50
2023-01-05T08:21:08.139Z,61.88
2023-01-05T08:22:08.138Z,61.88
2023-01-05T08:23:07.432Z,56.25
2023-01-05T08:24:07.438Z,56.25
2023-01-05T08:25:07.480Z,50.63
2023-01-05T08:26:07.556Z,45.00
2023-01-05T08:27:08.177Z,45.00
2023-01-05T08:28:08.136Z,39.38
2023-01-05T08:29:07.679Z,39.38
2023-01-05T08:30:07.726Z,45.00
2023-01-05T08:31:07.837Z,45.00
2023-01-05T08:32:07.937Z,45.00
2023-01-05T08:33:07.853Z,39.38
2023-01-05T08:34:07.903Z,33.75
2023-01-05T08:35:07.943Z,33.75
2023-01-05T08:36:08.022Z,28.13
2023-01-05T08:37:08.064Z,28.13
2023-01-05T08:38:08.081Z,33.75
2023-01-05T08:39:08.136Z,33.75
2023-01-05T08:40:09.161Z,33.75
2023-01-05T08:41:09.143Z,33.75
2023-01-05T08:42:08.313Z,33.75
2023-01-05T08:43:09.134Z,33.75
2023-01-05T08:44:08.400Z,33.75
2023-01-05T08:45:08.417Z,33.75
2023-01-05T08:46:09.161Z,39.38
2023-01-05T08:47:08.528Z,39.38
2023-01-05T08:48:08.560Z,33.75
2023-01-05T08:49:08.607Z,33.75
2023-01-05T08:50:09.640Z,28.13
2023-01-05T08:51:09.646Z,28.13
2023-01-05T08:52:08.769Z,22.50
2023-01-05T08:53:08.782Z,22.50
2023-01-05T08:54:09.650Z,22.50
2023-01-05T08:55:08.875Z,28.13
2023-01-05T08:56:09.647Z,33.75
2023-01-05T08:57:09.005Z,33.75
2023-01-05T08:58:09.049Z,45.00
2023-01-05T08:59:09.061Z,56.25
2023-01-05T09:00:09.109Z,50.63
2023-01-05T09:01:09.251Z,45.00
2023-01-05T09:02:09.415Z,56.25
2023-01-05T09:03:09.429Z,67.50
2023-01-05T09:04:10.175Z,78.75
2023-01-05T09:05:09.344Z,84.38
2023-01-05T09:06:09.419Z,78.75
2023-01-05T09:07:09.452Z,84.38
2023-01-05T09:08:09.507Z,84.38
2023-01-05T09:09:09.551Z,78.75
2023-01-05T09:10:09.580Z,78.75
2023-01-05T09:11:09.625Z,78.75
2023-01-05T09:12:09.666Z,78.75
2023-01-05T09:13:09.721Z,73.13
2023-01-05T09:14:09.795Z,61.88
2023-01-05T09:15:10.663Z,56.25
2023-01-05T09:16:09.859Z,50.63
2023-01-05T09:17:10.054Z,45.00
2023-01-05T09:18:09.976Z,45.00
2023-01-05T09:19:10.673Z,45.00
2023-01-05T09:20:10.040Z,45.00
2023-01-05T09:21:10.100Z,45.00
2023-01-05T09:22:10.660Z,45.00
2023-01-05T09:23:10.231Z,39.38
2023-01-05T09:24:11.144Z,39.38
2023-01-05T09:25:10.289Z,39.38
2023-01-05T09:26:11.149Z,39.38
2023-01-05T09:27:10.367Z,39.38
2023-01-05T09:28:10.425Z,39.38
2023-01-05T09:29:10.467Z,39.38
2023-01-05T09:30:10.523Z,39.38
2023-01-05T09:31:11.171Z,39.38
2023-01-05T09:32:10.599Z,39.38
2023-01-05T09:33:11.126Z,39.38
2023-01-05T09:34:10.883Z,45.00
2023-01-05T09:35:11.318Z,45.00
2023-01-05T09:36:11.207Z,45.00
2023-01-05T09:37:11.600Z,50.63
2023-01-05T09:38:11.685Z,50.63
2023-01-05T09:39:11.461Z,50.63
2023-01-05T09:40:11.218Z,50.63
2023-01-05T09:41:11.406Z,50.63
2023-01-05T09:42:11.659Z,50.63
2023-01-05T09:43:11.103Z,50.63
2023-01-05T09:44:12.149Z,50.63
2023-01-05T09:45:11.240Z,50.63
2023-01-05T09:46:12.186Z,56.25
2023-01-05T09:47:12.149Z,56.25
2023-01-05T09:48:12.159Z,50.63
2023-01-05T09:49:12.149Z,50.63
2023-01-05T09:50:11.471Z,56.25
2023-01-05T09:51:12.157Z,50.63
2023-01-05T09:52:11.578Z,50.63
2023-01-05T09:53:11.599Z,50.63
2023-01-05T09:54:12.150Z,56.25
2023-01-05T09:55:12.658Z,56.25
2023-01-05T09:56:13.751Z,56.25
2023-01-05T09:57:12.876Z,56.25
2023-01-05T09:58:12.656Z,50.63
2023-01-05T09:59:12.661Z,50.63
2023-01-05T10:00:12.651Z,61.88
2023-01-05T10:01:12.721Z,73.13
2023-01-05T10:02:12.026Z,84.38
2023-01-05T10:03:29.302Z,84.38
2023-01-05T10:04:12.149Z,84.38
2023-01-05T10:05:12.779Z,78.75
2023-01-05T10:06:13.167Z,73.13
2023-01-05T10:07:13.163Z,73.13
2023-01-05T10:08:12.330Z,73.13
2023-01-05T10:09:12.336Z,73.13
2023-01-05T10:10:13.157Z,61.88
2023-01-05T10:11:13.155Z,67.50
2023-01-05T10:12:13.180Z,73.13
2023-01-05T10:13:12.549Z,78.75
2023-01-05T10:14:13.153Z,95.63
2023-01-05T10:15:13.179Z,106.88
2023-01-05T10:16:13.229Z,118.13
2023-01-05T10:17:40.029Z,123.75
2023-01-05T10:18:12.779Z,118.13
2023-01-05T10:19:13.655Z,84.38
2023-01-05T10:20:13.660Z,84.38
2023-01-05T10:21:13.692Z,90.00
2023-01-05T10:22:12.962Z,90.00
2023-01-05T10:23:13.655Z,101.25
2023-01-05T10:24:13.664Z,112.50
2023-01-05T10:25:13.663Z,118.13
2023-01-05T10:26:13.175Z,106.88
2023-01-05T10:27:24.777Z,106.88
2023-01-05T10:28:14.169Z,112.50
2023-01-05T10:29:14.188Z,112.50
2023-01-05T10:30:14.183Z,112.50
2023-01-05T10:31:13.437Z,106.88
2023-01-05T10:32:13.417Z,106.88
2023-01-05T10:33:27.425Z,123.75
2023-01-05T10:34:16.389Z,163.13
2023-01-05T10:35:27.132Z,157.50
2023-01-05T10:36:16.496Z,140.63
2023-01-05T10:37:14.177Z,135.00
2023-01-05T10:38:14.681Z,118.13
2023-01-05T10:39:13.762Z,112.50
2023-01-05T10:40:14.677Z,106.88
2023-01-05T10:41:13.915Z,95.63
2023-01-05T10:42:14.669Z,106.88
2023-01-05T10:43:13.936Z,90.00
2023-01-05T10:44:16.674Z,78.75
2023-01-05T10:45:14.670Z,78.75
2023-01-05T10:46:45.843Z,67.50
2023-01-05T10:47:14.203Z,73.13
2023-01-05T10:48:14.162Z,101.25
2023-01-05T10:49:15.166Z,101.25
2023-01-05T10:50:14.300Z,90.00
2023-01-05T10:51:14.321Z,95.63
2023-01-05T10:52:14.387Z,78.75
2023-01-05T10:53:14.398Z,78.75
2023-01-05T10:54:14.463Z,95.63
2023-01-05T10:55:15.206Z,106.88
2023-01-05T10:56:15.167Z,106.88
2023-01-05T10:57:14.701Z,112.50
2023-01-05T10:58:14.650Z,123.75
2023-01-05T10:59:14.743Z,157.50
2023-01-05T11:00:14.744Z,213.75
2023-01-05T11:01:14.919Z,213.75
2023-01-05T11:02:14.927Z,202.50
2023-01-05T11:03:14.903Z,208.13
2023-01-05T11:04:29.305Z,219.38
2023-01-05T11:05:15.767Z,208.13
2023-01-05T11:06:15.034Z,180.00
2023-01-05T11:07:15.074Z,208.13
2023-01-05T11:08:15.151Z,219.38
2023-01-05T11:09:18.814Z,219.38
2023-01-05T11:10:16.219Z,213.75
2023-01-05T11:11:15.249Z,196.88
2023-01-05T11:12:16.179Z,174.38
2023-01-05T11:13:15.398Z,174.38
2023-01-05T11:14:15.403Z,163.13
2023-01-05T11:15:15.496Z,151.88
2023-01-05T11:16:16.238Z,146.25
2023-01-05T11:17:16.185Z,146.25
2023-01-05T11:18:15.589Z,146.25
2023-01-05T11:19:15.644Z,135.00
2023-01-05T11:20:15.762Z,123.75
2023-01-05T11:21:15.752Z,112.50
2023-01-05T11:22:15.782Z,106.88
2023-01-05T11:23:16.678Z,106.88
2023-01-05T11:24:15.906Z,101.25
2023-01-05T11:25:16.674Z,106.88
2023-01-05T11:26:15.986Z,112.50
2023-01-05T11:27:16.027Z,112.50
2023-01-05T11:28:16.112Z,112.50
2023-01-05T11:29:16.689Z,112.50
2023-01-05T11:30:16.180Z,118.13
2023-01-05T11:31:17.197Z,123.75
2023-01-05T11:32:16.280Z,146.25
2023-01-05T11:33:23.038Z,168.75
2023-01-05T11:34:17.185Z,168.75
2023-01-05T11:35:16.436Z,163.13
2023-01-05T11:36:17.181Z,146.25
2023-01-05T11:37:17.197Z,140.63
2023-01-05T11:38:16.547Z,151.88
2023-01-05T11:39:16.593Z,163.13
2023-01-05T11:40:16.673Z,180.00
2023-01-05T11:41:17.682Z,185.63
2023-01-05T11:42:21.761Z,174.38
2023-01-05T11:43:17.684Z,168.75
2023-01-05T11:44:17.684Z,168.75
2023-01-05T11:45:16.918Z,174.38
2023-01-05T11:46:17.739Z,168.75
2023-01-05T11:47:17.685Z,157.50
2023-01-05T11:48:17.687Z,151.88
2023-01-05T11:49:17.065Z,157.50
2023-01-05T11:50:17.148Z,180.00
2023-01-05T11:51:18.159Z,196.88
2023-01-05T11:52:17.204Z,230.63
2023-01-05T11:53:18.183Z,241.88
2023-01-05T11:54:18.186Z,253.13
2023-01-05T11:55:17.387Z,247.50
2023-01-05T11:56:17.444Z,241.88
2023-01-05T11:57:17.470Z,281.25
2023-01-05T11:58:18.184Z,298.13
2023-01-05T11:59:18.184Z,281.25
2023-01-05T12:00:18.251Z,309.38
2023-01-05T12:01:17.730Z,343.13
2023-01-05T12:02:18.733Z,309.38
2023-01-05T12:03:18.701Z,292.50
2023-01-05T12:04:18.786Z,281.25
2023-01-05T12:05:18.692Z,292.50
2023-01-05T12:06:17.921Z,258.75
2023-01-05T12:07:17.934Z,241.88
2023-01-05T12:08:18.728Z,253.13
2023-01-05T12:09:18.071Z,219.38
2023-01-05T12:10:18.689Z,202.50
2023-01-05T12:11:18.165Z,191.25
2023-01-05T12:12:18.180Z,168.75
2023-01-05T12:13:18.252Z,151.88
2023-01-05T12:14:18.276Z,140.63
2023-01-05T12:15:18.431Z,146.25
2023-01-05T12:16:18.396Z,140.63
2023-01-05T12:17:18.428Z,135.00
2023-01-05T12:18:18.534Z,129.38
2023-01-05T12:19:18.563Z,129.38
2023-01-05T12:20:18.617Z,129.38
2023-01-05T12:21:18.648Z,129.38
2023-01-05T12:22:18.678Z,129.38
2023-01-05T12:23:18.728Z,129.38
2023-01-05T12:24:18.773Z,129.38
2023-01-05T12:25:18.851Z,123.75
2023-01-05T12:26:18.875Z,123.75
2023-01-05T12:27:18.946Z,118.13
2023-01-05T12:28:35.684Z,118.13
2023-01-05T12:33:44.524Z,106.88
2023-01-05T12:34:19.251Z,106.88
2023-01-05T12:35:19.291Z,106.88
2023-01-05T12:36:19.384Z,112.50
2023-01-05T12:37:19.408Z,112.50
2023-01-05T12:38:19.506Z,112.50
2023-01-05T12:39:19.507Z,112.50
2023-01-05T12:40:20.227Z,112.50
2023-01-05T12:41:20.206Z,106.88
2023-01-05T12:42:19.644Z,106.88
2023-01-05T12:43:19.712Z,101.25
2023-01-05T12:44:20.700Z,101.25
2023-01-05T12:45:19.787Z,101.25
2023-01-05T12:46:19.889Z,101.25
2023-01-05T12:47:20.710Z,101.25
2023-01-05T12:48:20.858Z,101.25
2023-01-05T12:49:19.975Z,101.25
2023-01-05T12:50:20.711Z,106.88
2023-01-05T12:51:20.108Z,106.88
2023-01-05T12:52:20.121Z,118.13
2023-01-05T12:53:20.709Z,129.38
2023-01-05T12:54:20.211Z,135.00
2023-01-05T12:55:21.204Z,129.38
2023-01-05T12:56:20.337Z,123.75
2023-01-05T12:57:21.204Z,123.75
2023-01-05T12:58:21.214Z,118.13
2023-01-05T12:59:20.481Z,118.13
2023-01-05T13:00:21.207Z,112.50
2023-01-05T13:01:20.639Z,101.25
2023-01-05T13:02:21.258Z,90.00
2023-01-05T13:03:21.251Z,90.00
2023-01-05T13:04:20.691Z,84.38
2023-01-05T13:05:21.749Z,84.38
2023-01-05T13:06:20.810Z,78.75
2023-01-05T13:07:20.832Z,67.50